sensor_id;sensor_type;location;lat;lon;timestamp;pressure;altitude;pressure_sealevel;temperature;humidity
9281;BME280;4679;47.966;7.958;2023-04-15T06:36:56;96148.06;;;7.49;66.67
9281;BME280;4679;47.966;7.958;2023-04-15T06:38:58;96153.41;;;7.54;66.61
9281;BME280;4679;47.966;7.958;2023-04-15T06:41:00;96156.91;;;7.59;66.82
9281;BME280;4679;47.966;7.958;2023-04-15T06:43:03;96151.41;;;7.66;67.19
9281;BME280;4679;47.966;7.958;2023-04-15T06:45:06;96156.03;;;7.75;66.86
9281;BME280;4679;47.966;7.958;2023-04-15T06:47:08;96152.13;;;7.83;66.31
9281;BME280;4679;47.966;7.958;2023-04-15T06:49:09;96148.75;;;7.88;66.90
9281;BME280;4679;47.966;7.958;2023-04-15T06:51:11;96147.19;;;7.92;66.58
9281;BME280;4679;47.966;7.958;2023-04-15T06:53:15;96150.41;;;7.99;66.90
9281;BME280;4679;47.966;7.958;2023-04-15T06:55:16;96149.44;;;8.05;65.95
9281;BME280;4679;47.966;7.958;2023-04-15T06:57:18;96147.59;;;8.10;66.06
9281;BME280;4679;47.966;7.958;2023-04-15T06:59:20;96153.19;;;8.14;66.10
9281;BME280;4679;47.966;7.958;2023-04-15T07:01:21;96151.66;;;8.18;66.13
9281;BME280;4679;47.966;7.958;2023-04-15T07:03:23;96147.22;;;8.24;66.13
9281;BME280;4679;47.966;7.958;2023-04-15T07:05:25;96146.44;;;8.28;66.06
9281;BME280;4679;47.966;7.958;2023-04-15T07:07:27;96159.16;;;8.31;66.06
9281;BME280;4679;47.966;7.958;2023-04-15T07:09:30;96144.13;;;8.32;66.13
9281;BME280;4679;47.966;7.958;2023-04-15T07:11:33;96148.91;;;8.35;66.07
9281;BME280;4679;47.966;7.958;2023-04-15T07:13:36;96145.50;;;8.39;65.92
9281;BME280;4679;47.966;7.958;2023-04-15T07:15:38;96143.69;;;8.45;65.93
9281;BME280;4679;47.966;7.958;2023-04-15T07:17:40;96146.63;;;8.49;66.15
9281;BME280;4679;47.966;7.958;2023-04-15T07:19:43;96138.19;;;8.52;66.22
9281;BME280;4679;47.966;7.958;2023-04-15T07:21:44;96136.09;;;8.54;66.08
9281;BME280;4679;47.966;7.958;2023-04-15T07:23:46;96132.13;;;8.56;66.07
9281;BME280;4679;47.966;7.958;2023-04-15T07:25:49;96138.50;;;8.60;65.79
9281;BME280;4679;47.966;7.958;2023-04-15T07:27:51;96141.44;;;8.64;65.95
9281;BME280;4679;47.966;7.958;2023-04-15T07:29:53;96138.84;;;8.69;66.16
9281;BME280;4679;47.966;7.958;2023-04-15T07:31:55;96133.31;;;8.75;65.36
9281;BME280;4679;47.966;7.958;2023-04-15T07:33:57;96136.00;;;8.80;65.43
9281;BME280;4679;47.966;7.958;2023-04-15T07:35:59;96141.56;;;8.84;65.59
9281;BME280;4679;47.966;7.958;2023-04-15T07:38:01;96133.63;;;8.89;65.19
9281;BME280;4679;47.966;7.958;2023-04-15T07:40:03;96135.53;;;8.94;65.51
9281;BME280;4679;47.966;7.958;2023-04-15T07:42:07;96139.75;;;8.95;65.23
9281;BME280;4679;47.966;7.958;2023-04-15T07:44:10;96140.56;;;8.95;65.33
9281;BME280;4679;47.966;7.958;2023-04-15T07:46:11;96143.50;;;8.99;64.93
9281;BME280;4679;47.966;7.958;2023-04-15T07:48:13;96145.34;;;9.03;64.92
9281;BME280;4679;47.966;7.958;2023-04-15T07:50:15;96147.22;;;9.08;64.83
9281;BME280;4679;47.966;7.958;2023-04-15T07:52:19;96144.59;;;9.08;65.04
9281;BME280;4679;47.966;7.958;2023-04-15T07:54:20;96148.81;;;9.09;64.53
9281;BME280;4679;47.966;7.958;2023-04-15T07:56:22;96144.06;;;9.11;65.02
9281;BME280;4679;47.966;7.958;2023-04-15T07:58:25;96143.81;;;9.17;64.58
9281;BME280;4679;47.966;7.958;2023-04-15T08:00:27;96152.56;;;9.18;65.01
9281;BME280;4679;47.966;7.958;2023-04-15T08:02:28;96148.06;;;9.13;64.68
9281;BME280;4679;47.966;7.958;2023-04-15T08:04:30;96146.72;;;9.11;64.56
9281;BME280;4679;47.966;7.958;2023-04-15T08:06:33;96144.34;;;9.09;65.74
9281;BME280;4679;47.966;7.958;2023-04-15T08:08:34;96143.81;;;9.17;65.01
9281;BME280;4679;47.966;7.958;2023-04-15T08:10:36;96147.56;;;9.22;65.22
9281;BME280;4679;47.966;7.958;2023-04-15T08:12:38;96146.53;;;9.28;64.65
9281;BME280;4679;47.966;7.958;2023-04-15T08:14:42;96150.50;;;9.35;64.75
9281;BME280;4679;47.966;7.958;2023-04-15T08:16:43;96153.44;;;9.39;64.76
9281;BME280;4679;47.966;7.958;2023-04-15T08:18:46;96157.16;;;9.38;64.99
9281;BME280;4679;47.966;7.958;2023-04-15T08:20:47;96160.88;;;9.42;65.04
9281;BME280;4679;47.966;7.958;2023-04-15T08:22:49;96167.78;;;9.43;65.04
9281;BME280;4679;47.966;7.958;2023-04-15T08:24:51;96159.31;;;9.46;65.04
9281;BME280;4679;47.966;7.958;2023-04-15T08:26:53;96165.44;;;9.57;64.57
9281;BME280;4679;47.966;7.958;2023-04-15T08:28:56;96165.44;;;9.67;64.42
9281;BME280;4679;47.966;7.958;2023-04-15T08:30:59;96164.41;;;9.73;64.96
9281;BME280;4679;47.966;7.958;2023-04-15T08:33:01;96173.16;;;9.73;64.38
9281;BME280;4679;47.966;7.958;2023-04-15T08:35:03;96167.34;;;9.76;65.32
9281;BME280;4679;47.966;7.958;2023-04-15T08:37:05;96166.81;;;9.84;64.70
9281;BME280;4679;47.966;7.958;2023-04-15T08:39:07;96171.09;;;9.91;64.69
9281;BME280;4679;47.966;7.958;2023-04-15T08:41:19;96170.56;;;9.99;64.81
9281;BME280;4679;47.966;7.958;2023-04-15T08:43:23;96175.88;;;10.04;64.76
9281;BME280;4679;47.966;7.958;2023-04-15T08:45:28;96172.16;;;10.05;63.94
9281;BME280;4679;47.966;7.958;2023-04-15T08:47:32;96175.59;;;10.10;64.29
9281;BME280;4679;47.966;7.958;2023-04-15T08:49:38;96176.16;;;10.17;64.46
9281;BME280;4679;47.966;7.958;2023-04-15T08:51:40;96174.59;;;10.21;64.77
9281;BME280;4679;47.966;7.958;2023-04-15T08:53:43;96181.75;;;10.31;63.72
9281;BME280;4679;47.966;7.958;2023-04-15T08:55:50;96178.56;;;10.39;63.85
9281;BME280;4679;47.966;7.958;2023-04-15T08:57:52;96190.25;;;10.48;64.22
9281;BME280;4679;47.966;7.958;2023-04-15T08:59:55;96187.31;;;10.55;63.86
9281;BME280;4679;47.966;7.958;2023-04-15T09:01:56;96186.00;;;10.63;63.60
9281;BME280;4679;47.966;7.958;2023-04-15T09:04:01;96186.78;;;10.73;63.64
9281;BME280;4679;47.966;7.958;2023-04-15T09:06:06;96183.31;;;10.73;63.63
9281;BME280;4679;47.966;7.958;2023-04-15T09:08:07;96192.88;;;10.79;64.03
9281;BME280;4679;47.966;7.958;2023-04-15T09:10:10;96195.00;;;10.82;63.67
9281;BME280;4679;47.966;7.958;2023-04-15T09:12:11;96195.50;;;10.89;63.47
9281;BME280;4679;47.966;7.958;2023-04-15T09:14:13;96197.09;;;10.95;63.84
9281;BME280;4679;47.966;7.958;2023-04-15T09:16:16;96192.34;;;10.97;63.25
9281;BME280;4679;47.966;7.958;2023-04-15T09:18:26;96193.91;;;11.03;62.99
9281;BME280;4679;47.966;7.958;2023-04-15T09:20:38;96193.91;;;11.08;63.21
9281;BME280;4679;47.966;7.958;2023-04-15T09:22:41;96198.41;;;11.13;63.56
9281;BME280;4679;47.966;7.958;2023-04-15T09:24:43;96194.38;;;11.20;63.07
9281;BME280;4679;47.966;7.958;2023-04-15T09:26:46;96202.63;;;11.24;63.29
9281;BME280;4679;47.966;7.958;2023-04-15T09:28:47;96201.59;;;11.15;62.95
9281;BME280;4679;47.966;7.958;2023-04-15T09:30:50;96210.06;;;11.17;64.28
9281;BME280;4679;47.966;7.958;2023-04-15T09:32:53;96205.28;;;11.24;63.53
9281;BME280;4679;47.966;7.958;2023-04-15T09:34:55;96206.88;;;11.25;62.96
9281;BME280;4679;47.966;7.958;2023-04-15T09:36:58;96212.19;;;11.20;63.54
9281;BME280;4679;47.966;7.958;2023-04-15T09:39:00;96211.91;;;11.26;62.58
9281;BME280;4679;47.966;7.958;2023-04-15T09:41:02;96214.56;;;11.26;63.59
9281;BME280;4679;47.966;7.958;2023-04-15T09:43:05;96220.38;;;11.39;63.39
9281;BME280;4679;47.966;7.958;2023-04-15T09:45:07;96220.31;;;11.49;63.03
9281;BME280;4679;47.966;7.958;2023-04-15T09:47:26;96220.38;;;11.44;63.37
9281;BME280;4679;47.966;7.958;2023-04-15T09:49:28;96223.25;;;11.52;63.33
9281;BME280;4679;47.966;7.958;2023-04-15T09:51:33;96222.69;;;11.60;62.59
9281;BME280;4679;47.966;7.958;2023-04-15T09:53:37;96215.44;;;11.81;61.78
9281;BME280;4679;47.966;7.958;2023-04-15T09:55:38;96225.19;;;12.01;62.34
9281;BME280;4679;47.966;7.958;2023-04-15T09:57:40;96226.47;;;12.09;62.04
9281;BME280;4679;47.966;7.958;2023-04-15T09:59:43;96225.09;;;12.21;62.04
9281;BME280;4679;47.966;7.958;2023-04-15T10:01:45;96227.41;;;12.28;61.33
9281;BME280;4679;47.966;7.958;2023-04-15T10:03:47;96226.88;;;12.31;61.78
9281;BME280;4679;47.966;7.958;2023-04-15T10:05:53;96235.13;;;12.29;61.49
9281;BME280;4679;47.966;7.958;2023-04-15T10:07:55;96233.50;;;12.33;60.95
9281;BME280;4679;47.966;7.958;2023-04-15T10:09:59;96230.25;;;12.42;61.65
9281;BME280;4679;47.966;7.958;2023-04-15T10:12:02;96236.91;;;12.39;61.03
9281;BME280;4679;47.966;7.958;2023-04-15T10:14:05;96236.63;;;12.46;61.11
9281;BME280;4679;47.966;7.958;2023-04-15T10:16:10;96235.72;;;12.55;61.38
9281;BME280;4679;47.966;7.958;2023-04-15T10:18:15;96237.31;;;12.61;61.19
9281;BME280;4679;47.966;7.958;2023-04-15T10:20:18;96229.75;;;12.74;60.88
9281;BME280;4679;47.966;7.958;2023-04-15T10:22:21;96237.44;;;12.80;60.29
9281;BME280;4679;47.966;7.958;2023-04-15T10:24:23;96232.13;;;13.04;60.35
9281;BME280;4679;47.966;7.958;2023-04-15T10:26:27;96238.78;;;13.35;59.84
9281;BME280;4679;47.966;7.958;2023-04-15T10:28:30;96226.53;;;13.82;58.97
9281;BME280;4679;47.966;7.958;2023-04-15T10:32:41;96237.59;;;14.13;58.36
9281;BME280;4679;47.966;7.958;2023-04-15T10:34:44;96240.03;;;14.09;58.33
9281;BME280;4679;47.966;7.958;2023-04-15T10:36:46;96241.50;;;13.78;58.60
9281;BME280;4679;47.966;7.958;2023-04-15T10:38:48;96245.69;;;13.60;59.28
9281;BME280;4679;47.966;7.958;2023-04-15T10:40:49;96247.53;;;13.65;59.20
9281;BME280;4679;47.966;7.958;2023-04-15T10:42:53;96248.50;;;13.74;58.89
9281;BME280;4679;47.966;7.958;2023-04-15T10:44:55;96249.13;;;13.66;59.11
9281;BME280;4679;47.966;7.958;2023-04-15T10:46:57;96249.97;;;13.61;58.78
9281;BME280;4679;47.966;7.958;2023-04-15T10:49:06;96256.88;;;13.38;59.21
9281;BME280;4679;47.966;7.958;2023-04-15T10:51:08;96252.16;;;13.59;58.73
9281;BME280;4679;47.966;7.958;2023-04-15T10:53:10;96254.28;;;13.81;58.94
9281;BME280;4679;47.966;7.958;2023-04-15T10:55:13;96255.81;;;13.87;58.55
9281;BME280;4679;47.966;7.958;2023-04-15T10:57:21;96255.53;;;13.65;58.85
9281;BME280;4679;47.966;7.958;2023-04-15T10:59:23;96254.44;;;13.66;58.82
9281;BME280;4679;47.966;7.958;2023-04-15T11:01:48;96267.00;;;13.89;58.50
9281;BME280;4679;47.966;7.958;2023-04-15T11:03:50;96261.94;;;13.88;58.48
9281;BME280;4679;47.966;7.958;2023-04-15T11:05:53;96265.56;;;13.97;58.51
9281;BME280;4679;47.966;7.958;2023-04-15T11:07:56;96266.06;;;13.99;58.34
9281;BME280;4679;47.966;7.958;2023-04-15T11:09:58;96267.66;;;13.76;58.67
9281;BME280;4679;47.966;7.958;2023-04-15T11:12:06;96276.78;;;13.46;58.84
9281;BME280;4679;47.966;7.958;2023-04-15T11:14:14;96273.47;;;13.30;59.43
9281;BME280;4679;47.966;7.958;2023-04-15T11:16:16;96279.94;;;13.24;58.98
9281;BME280;4679;47.966;7.958;2023-04-15T11:18:20;96279.19;;;13.19;59.05
9281;BME280;4679;47.966;7.958;2023-04-15T11:20:22;96281.84;;;13.19;59.27
9281;BME280;4679;47.966;7.958;2023-04-15T11:22:25;96281.78;;;13.29;58.81
9281;BME280;4679;47.966;7.958;2023-04-15T11:24:27;96287.78;;;13.40;58.70
9281;BME280;4679;47.966;7.958;2023-04-15T11:26:28;96287.22;;;13.43;58.94
9281;BME280;4679;47.966;7.958;2023-04-15T11:28:31;96285.97;;;13.35;59.36
9281;BME280;4679;47.966;7.958;2023-04-15T11:30:34;96294.22;;;13.33;59.21
9281;BME280;4679;47.966;7.958;2023-04-15T11:32:36;96295.59;;;13.31;59.06
9281;BME280;4679;47.966;7.958;2023-04-15T11:34:44;96299.94;;;13.22;59.13
9281;BME280;4679;47.966;7.958;2023-04-15T11:36:46;96309.41;;;12.99;59.11
9281;BME280;4679;47.966;7.958;2023-04-15T11:38:49;96308.81;;;12.73;59.50
9281;BME280;4679;47.966;7.958;2023-04-15T11:40:51;96310.28;;;12.50;59.79
9281;BME280;4679;47.966;7.958;2023-04-15T11:43:03;96313.53;;;12.42;59.95
9281;BME280;4679;47.966;7.958;2023-04-15T11:45:06;96315.13;;;12.38;60.07
9281;BME280;4679;47.966;7.958;2023-04-15T11:47:21;96320.50;;;12.28;60.42
9281;BME280;4679;47.966;7.958;2023-04-15T11:49:26;96322.66;;;12.26;60.07
9281;BME280;4679;47.966;7.958;2023-04-15T11:51:31;96322.16;;;12.19;60.50
9281;BME280;4679;47.966;7.958;2023-04-15T11:53:38;96325.38;;;12.16;60.15
9281;BME280;4679;47.966;7.958;2023-04-15T11:55:43;96331.50;;;12.11;59.84
9281;BME280;4679;47.966;7.958;2023-04-15T11:57:46;96334.94;;;12.12;60.49
9281;BME280;4679;47.966;7.958;2023-04-15T11:59:48;96339.72;;;12.20;59.48
9281;BME280;4679;47.966;7.958;2023-04-15T12:01:49;96342.59;;;12.28;60.08
9281;BME280;4679;47.966;7.958;2023-04-15T12:03:51;96339.13;;;12.33;59.57
9281;BME280;4679;47.966;7.958;2023-04-15T12:06:13;96350.81;;;12.37;59.76
9281;BME280;4679;47.966;7.958;2023-04-15T12:08:15;96346.78;;;12.40;59.25
9281;BME280;4679;47.966;7.958;2023-04-15T12:10:17;96351.81;;;12.46;59.06
9281;BME280;4679;47.966;7.958;2023-04-15T12:12:20;96350.22;;;12.50;58.98
9281;BME280;4679;47.966;7.958;2023-04-15T12:14:24;96350.25;;;12.40;59.16
9281;BME280;4679;47.966;7.958;2023-04-15T12:16:27;96358.75;;;12.42;59.66
9281;BME280;4679;47.966;7.958;2023-04-15T12:18:29;96352.53;;;12.62;59.38
9281;BME280;4679;47.966;7.958;2023-04-15T12:20:31;96360.69;;;12.81;59.11
9281;BME280;4679;47.966;7.958;2023-04-15T12:22:36;96363.06;;;12.82;58.55
9281;BME280;4679;47.966;7.958;2023-04-15T12:24:39;96366.00;;;12.81;58.92
9281;BME280;4679;47.966;7.958;2023-04-15T12:26:44;96363.88;;;12.78;58.80
9281;BME280;4679;47.966;7.958;2023-04-15T12:28:47;96369.97;;;12.83;58.47
9281;BME280;4679;47.966;7.958;2023-04-15T12:30:50;96366.66;;;13.01;58.73
9281;BME280;4679;47.966;7.958;2023-04-15T12:32:52;96363.59;;;13.23;58.01
9281;BME280;4679;47.966;7.958;2023-04-15T12:34:53;96366.13;;;13.38;58.18
9281;BME280;4679;47.966;7.958;2023-04-15T12:36:56;96368.19;;;13.47;57.50
9281;BME280;4679;47.966;7.958;2023-04-15T12:38:58;96377.19;;;13.56;57.58
9281;BME280;4679;47.966;7.958;2023-04-15T12:41:00;96376.81;;;13.67;56.94
9281;BME280;4679;47.966;7.958;2023-04-15T12:43:02;96378.13;;;13.70;57.20
9281;BME280;4679;47.966;7.958;2023-04-15T12:45:06;96380.16;;;13.78;56.78
9281;BME280;4679;47.966;7.958;2023-04-15T12:47:09;96385.59;;;13.68;57.28
9281;BME280;4679;47.966;7.958;2023-04-15T12:49:11;96380.81;;;13.65;57.18
9281;BME280;4679;47.966;7.958;2023-04-15T12:53:22;96388.25;;;13.39;57.68
9281;BME280;4679;47.966;7.958;2023-04-15T12:55:23;96396.59;;;13.27;57.62
9281;BME280;4679;47.966;7.958;2023-04-15T12:57:25;96389.91;;;13.30;57.63
9281;BME280;4679;47.966;7.958;2023-04-15T12:59:27;96403.22;;;13.30;57.65
9281;BME280;4679;47.966;7.958;2023-04-15T13:01:30;96412.13;;;13.15;57.99
9281;BME280;4679;47.966;7.958;2023-04-15T13:03:32;96401.25;;;13.07;58.11
9281;BME280;4679;47.966;7.958;2023-04-15T13:05:34;96404.56;;;12.88;58.77
9281;BME280;4679;47.966;7.958;2023-04-15T13:07:36;96407.00;;;12.80;58.64
9281;BME280;4679;47.966;7.958;2023-04-15T13:09:38;96404.91;;;12.72;58.46
9281;BME280;4679;47.966;7.958;2023-04-15T13:11:40;96415.59;;;12.66;58.56
9281;BME280;4679;47.966;7.958;2023-04-15T13:13:42;96415.34;;;12.63;58.67
9281;BME280;4679;47.966;7.958;2023-04-15T13:15:43;96419.34;;;12.60;58.57
9281;BME280;4679;47.966;7.958;2023-04-15T13:17:47;96416.91;;;12.69;58.91
9281;BME280;4679;47.966;7.958;2023-04-15T13:19:49;96425.66;;;12.80;58.41
9281;BME280;4679;47.966;7.958;2023-04-15T13:21:50;96423.78;;;12.80;58.55
9281;BME280;4679;47.966;7.958;2023-04-15T13:23:52;96429.38;;;12.79;57.80
9281;BME280;4679;47.966;7.958;2023-04-15T13:25:54;96421.31;;;12.89;58.25
9281;BME280;4679;47.966;7.958;2023-04-15T13:27:56;96422.31;;;13.03;57.94
9281;BME280;4679;47.966;7.958;2023-04-15T13:29:58;96430.44;;;13.27;57.62
9281;BME280;4679;47.966;7.958;2023-04-15T13:32:00;96442.25;;;13.50;56.91
9281;BME280;4679;47.966;7.958;2023-04-15T13:34:03;96435.09;;;13.45;56.90
9281;BME280;4679;47.966;7.958;2023-04-15T13:36:05;96438.16;;;13.28;57.06
9281;BME280;4679;47.966;7.958;2023-04-15T13:38:07;96435.56;;;13.18;57.53
9281;BME280;4679;47.966;7.958;2023-04-15T13:40:09;96445.72;;;13.11;57.50
9281;BME280;4679;47.966;7.958;2023-04-15T13:42:11;96436.38;;;13.14;56.87
9281;BME280;4679;47.966;7.958;2023-04-15T13:44:13;96434.47;;;13.14;57.35
9281;BME280;4679;47.966;7.958;2023-04-15T13:46:15;96444.09;;;13.15;57.21
9281;BME280;4679;47.966;7.958;2023-04-15T13:48:17;96446.53;;;13.07;57.09
9281;BME280;4679;47.966;7.958;2023-04-15T13:50:21;96440.13;;;13.08;57.28
9281;BME280;4679;47.966;7.958;2023-04-15T13:52:22;96436.13;;;13.10;56.79
9281;BME280;4679;47.966;7.958;2023-04-15T13:54:24;96445.69;;;13.16;57.20
9281;BME280;4679;47.966;7.958;2023-04-15T13:56:26;96443.78;;;13.22;56.69
9281;BME280;4679;47.966;7.958;2023-04-15T13:58:28;96445.75;;;13.45;56.32
9281;BME280;4679;47.966;7.958;2023-04-15T14:00:29;96446.16;;;13.91;55.29
9281;BME280;4679;47.966;7.958;2023-04-15T14:02:31;96446.75;;;13.88;55.21
9281;BME280;4679;47.966;7.958;2023-04-15T14:04:33;96446.31;;;13.76;55.44
9281;BME280;4679;47.966;7.958;2023-04-15T14:06:36;96455.69;;;13.73;55.48
9281;BME280;4679;47.966;7.958;2023-04-15T14:08:37;96449.31;;;13.69;55.29
9281;BME280;4679;47.966;7.958;2023-04-15T14:10:39;96451.69;;;13.71;55.22
9281;BME280;4679;47.966;7.958;2023-04-15T14:12:43;96454.91;;;13.68;55.39
9281;BME280;4679;47.966;7.958;2023-04-15T14:14:45;96461.63;;;13.60;55.18
9281;BME280;4679;47.966;7.958;2023-04-15T14:16:46;96457.44;;;13.54;55.21
9281;BME280;4679;47.966;7.958;2023-04-15T14:18:48;96459.47;;;13.28;55.38
9281;BME280;4679;47.966;7.958;2023-04-15T14:20:50;96458.84;;;12.97;55.83
9281;BME280;4679;47.966;7.958;2023-04-15T14:22:53;96467.16;;;12.81;56.20
9281;BME280;4679;47.966;7.958;2023-04-15T14:24:55;96481.03;;;12.73;56.65
9281;BME280;4679;47.966;7.958;2023-04-15T14:26:57;96485.88;;;12.60;56.57
9281;BME280;4679;47.966;7.958;2023-04-15T14:28:59;96485.34;;;12.53;56.73
9281;BME280;4679;47.966;7.958;2023-04-15T14:31:00;96487.22;;;12.53;56.57
9281;BME280;4679;47.966;7.958;2023-04-15T14:33:02;96489.06;;;12.62;56.83
9281;BME280;4679;47.966;7.958;2023-04-15T14:35:05;96497.53;;;12.69;56.74
9281;BME280;4679;47.966;7.958;2023-04-15T14:37:06;96499.66;;;12.78;56.88
9281;BME280;4679;47.966;7.958;2023-04-15T14:39:10;96491.09;;;12.86;56.77
9281;BME280;4679;47.966;7.958;2023-04-15T14:41:11;96488.00;;;13.23;55.99
9281;BME280;4679;47.966;7.958;2023-04-15T14:43:13;96497.06;;;13.27;56.43
9281;BME280;4679;47.966;7.958;2023-04-15T14:45:15;96503.75;;;13.19;56.31
9281;BME280;4679;47.966;7.958;2023-04-15T14:47:17;96495.75;;;13.24;56.70
9281;BME280;4679;47.966;7.958;2023-04-15T14:49:18;96508.91;;;13.45;56.14
9281;BME280;4679;47.966;7.958;2023-04-15T14:51:21;96497.06;;;13.61;55.97
9281;BME280;4679;47.966;7.958;2023-04-15T14:53:23;96505.59;;;13.97;55.38
9281;BME280;4679;47.966;7.958;2023-04-15T14:55:26;96509.63;;;14.23;54.92
9281;BME280;4679;47.966;7.958;2023-04-15T14:57:28;96507.66;;;14.63;54.41
9281;BME280;4679;47.966;7.958;2023-04-15T14:59:30;96510.69;;;14.99;53.64
9281;BME280;4679;47.966;7.958;2023-04-15T15:01:32;96503.38;;;15.28;53.33
9281;BME280;4679;47.966;7.958;2023-04-15T15:03:34;96502.50;;;15.33;52.92
9281;BME280;4679;47.966;7.958;2023-04-15T15:05:35;96508.94;;;15.32;53.17
9281;BME280;4679;47.966;7.958;2023-04-15T15:07:37;96506.59;;;15.68;53.09
9281;BME280;4679;47.966;7.958;2023-04-15T15:09:40;96515.88;;;15.89;52.02
9281;BME280;4679;47.966;7.958;2023-04-15T15:11:43;96512.47;;;16.02;51.97
9281;BME280;4679;47.966;7.958;2023-04-15T15:13:44;96515.00;;;15.75;52.37
9281;BME280;4679;47.966;7.958;2023-04-15T15:15:46;96522.53;;;15.92;52.52
9281;BME280;4679;47.966;7.958;2023-04-15T15:17:49;96514.78;;;16.23;51.68
9281;BME280;4679;47.966;7.958;2023-04-15T15:19:51;96518.47;;;16.27;51.44
9281;BME280;4679;47.966;7.958;2023-04-15T15:21:52;96522.03;;;16.36;51.66
9281;BME280;4679;47.966;7.958;2023-04-15T15:23:54;96518.75;;;16.25;51.61
9281;BME280;4679;47.966;7.958;2023-04-15T15:25:56;96527.34;;;16.08;51.34
9281;BME280;4679;47.966;7.958;2023-04-15T15:28:00;96528.63;;;15.78;51.77
9281;BME280;4679;47.966;7.958;2023-04-15T15:30:01;96534.91;;;15.69;51.93
9281;BME280;4679;47.966;7.958;2023-04-15T15:32:04;96530.16;;;15.66;51.69
9281;BME280;4679;47.966;7.958;2023-04-15T15:34:05;96533.69;;;15.61;52.01
9281;BME280;4679;47.966;7.958;2023-04-15T15:36:08;96546.31;;;15.74;51.24
9281;BME280;4679;47.966;7.958;2023-04-15T15:38:11;96533.84;;;15.70;51.08
9281;BME280;4679;47.966;7.958;2023-04-15T15:40:13;96540.38;;;15.40;51.06
9281;BME280;4679;47.966;7.958;2023-04-15T15:42:14;96551.00;;;15.26;51.73
9281;BME280;4679;47.966;7.958;2023-04-15T15:44:17;96550.91;;;15.31;51.59
9281;BME280;4679;47.966;7.958;2023-04-15T15:46:19;96555.88;;;15.19;51.19
9281;BME280;4679;47.966;7.958;2023-04-15T15:48:23;96563.22;;;14.85;51.72
9281;BME280;4679;47.966;7.958;2023-04-15T15:50:25;96572.03;;;14.61;51.58
9281;BME280;4679;47.966;7.958;2023-04-15T15:52:26;96583.16;;;14.68;51.43
9281;BME280;4679;47.966;7.958;2023-04-15T15:54:28;96582.84;;;14.75;51.21
9281;BME280;4679;47.966;7.958;2023-04-15T15:56:31;96578.69;;;14.64;51.42
9281;BME280;4679;47.966;7.958;2023-04-15T15:58:34;96588.84;;;14.62;51.68
9281;BME280;4679;47.966;7.958;2023-04-15T16:00:37;96584.38;;;14.52;51.53
9281;BME280;4679;47.966;7.958;2023-04-15T16:02:39;96589.78;;;14.47;51.69
9281;BME280;4679;47.966;7.958;2023-04-15T16:04:40;96593.59;;;14.36;51.81
9281;BME280;4679;47.966;7.958;2023-04-15T16:06:42;96588.31;;;14.31;51.83
9281;BME280;4679;47.966;7.958;2023-04-15T16:08:45;96603.25;;;14.32;52.01
9281;BME280;4679;47.966;7.958;2023-04-15T16:10:47;96597.97;;;14.22;52.30
9281;BME280;4679;47.966;7.958;2023-04-15T16:12:49;96596.94;;;14.18;51.86
9281;BME280;4679;47.966;7.958;2023-04-15T16:14:50;96601.22;;;14.19;52.44
9281;BME280;4679;47.966;7.958;2023-04-15T16:16:54;96606.06;;;14.12;52.28
9281;BME280;4679;47.966;7.958;2023-04-15T16:18:56;96602.63;;;14.06;52.54
9281;BME280;4679;47.966;7.958;2023-04-15T16:20:57;96608.56;;;13.98;52.02
9281;BME280;4679;47.966;7.958;2023-04-15T16:23:02;96596.28;;;14.02;52.07
9281;BME280;4679;47.966;7.958;2023-04-15T16:25:08;96612.75;;;14.09;52.19
9281;BME280;4679;47.966;7.958;2023-04-15T16:27:09;96605.53;;;14.09;51.66
9281;BME280;4679;47.966;7.958;2023-04-15T16:29:15;96615.69;;;14.07;51.80
9281;BME280;4679;47.966;7.958;2023-04-15T16:31:17;96615.69;;;14.07;51.75
9281;BME280;4679;47.966;7.958;2023-04-15T16:33:20;96615.22;;;14.00;51.85
9281;BME280;4679;47.966;7.958;2023-04-15T16:35:21;96618.47;;;13.92;51.98
9281;BME280;4679;47.966;7.958;2023-04-15T16:37:23;96613.97;;;13.88;51.52
9281;BME280;4679;47.966;7.958;2023-04-15T16:39:25;96621.19;;;13.82;51.98
9281;BME280;4679;47.966;7.958;2023-04-15T16:41:26;96614.53;;;13.80;52.05
9281;BME280;4679;47.966;7.958;2023-04-15T16:43:28;96621.22;;;13.77;52.15
9281;BME280;4679;47.966;7.958;2023-04-15T16:45:30;96625.03;;;13.66;52.31
9281;BME280;4679;47.966;7.958;2023-04-15T16:47:31;96630.09;;;13.67;52.31
9281;BME280;4679;47.966;7.958;2023-04-15T16:49:34;96635.69;;;13.66;52.38
9281;BME280;4679;47.966;7.958;2023-04-15T16:51:36;96643.44;;;13.62;52.56
9281;BME280;4679;47.966;7.958;2023-04-15T16:53:38;96652.22;;;13.63;52.73
9281;BME280;4679;47.966;7.958;2023-04-15T16:55:39;96646.88;;;13.63;52.64
9281;BME280;4679;47.966;7.958;2023-04-15T16:57:41;96654.34;;;13.66;52.60
9281;BME280;4679;47.966;7.958;2023-04-15T16:59:43;96663.72;;;13.58;52.84
9281;BME280;4679;47.966;7.958;2023-04-15T17:01:45;96666.13;;;13.55;52.95
9281;BME280;4679;47.966;7.958;2023-04-15T17:03:46;96670.16;;;13.52;52.93
9281;BME280;4679;47.966;7.958;2023-04-15T17:05:50;96666.94;;;13.50;53.20
9281;BME280;4679;47.966;7.958;2023-04-15T17:07:52;96677.34;;;13.52;53.12
9281;BME280;4679;47.966;7.958;2023-04-15T17:09:53;96672.81;;;13.47;53.51
9281;BME280;4679;47.966;7.958;2023-04-15T17:11:55;96671.53;;;13.40;53.60
9281;BME280;4679;47.966;7.958;2023-04-15T17:13:57;96683.25;;;13.33;53.75
9281;BME280;4679;47.966;7.958;2023-04-15T17:15:58;96683.00;;;13.30;53.83
9281;BME280;4679;47.966;7.958;2023-04-15T17:18:01;96682.50;;;13.28;54.22
9281;BME280;4679;47.966;7.958;2023-04-15T17:20:03;96682.50;;;13.28;53.86
9281;BME280;4679;47.966;7.958;2023-04-15T17:22:06;96687.56;;;13.24;54.24
9281;BME280;4679;47.966;7.958;2023-04-15T17:24:08;96707.28;;;13.18;54.26
9281;BME280;4679;47.966;7.958;2023-04-15T17:26:10;96709.41;;;13.11;54.25
9281;BME280;4679;47.966;7.958;2023-04-15T17:28:12;96709.94;;;13.03;54.81
9281;BME280;4679;47.966;7.958;2023-04-15T17:30:13;96714.75;;;12.96;54.56
9281;BME280;4679;47.966;7.958;2023-04-15T17:32:15;96707.84;;;12.95;54.75
9281;BME280;4679;47.966;7.958;2023-04-15T17:34:17;96712.38;;;12.94;55.18
9281;BME280;4679;47.966;7.958;2023-04-15T17:36:19;96708.91;;;12.84;55.18
9281;BME280;4679;47.966;7.958;2023-04-15T17:38:22;96712.09;;;12.76;55.32
9281;BME280;4679;47.966;7.958;2023-04-15T17:40:23;96719.56;;;12.68;55.12
9281;BME280;4679;47.966;7.958;2023-04-15T17:42:25;96720.09;;;12.71;55.73
9281;BME280;4679;47.966;7.958;2023-04-15T17:44:26;96720.09;;;12.65;55.16
9281;BME280;4679;47.966;7.958;2023-04-15T17:46:29;96720.63;;;12.62;55.31
9281;BME280;4679;47.966;7.958;2023-04-15T17:48:31;96733.38;;;12.55;55.66
9281;BME280;4679;47.966;7.958;2023-04-15T17:50:32;96735.25;;;12.45;56.17